createdAt,value
2019-03-24T00:01:14.917Z,7.90
2019-03-24T00:03:42.995Z,7.80
2019-03-24T00:06:11.231Z,7.50
2019-03-24T00:08:39.302Z,7.30
2019-03-24T00:11:07.345Z,7.10
2019-03-24T00:13:36.179Z,7.10
2019-03-24T00:16:04.219Z,7.10
2019-03-24T00:18:32.271Z,7.20
2019-03-24T00:21:01.082Z,7.20
2019-03-24T00:23:29.143Z,7.10
2019-03-24T00:25:57.195Z,7.00
2019-03-24T00:28:25.221Z,7.00
2019-03-24T00:30:53.277Z,7.10
2019-03-24T00:33:21.340Z,7.10
2019-03-24T00:35:50.119Z,7.40
2019-03-24T00:38:18.175Z,7.40
2019-03-24T00:40:46.269Z,7.00
2019-03-24T00:43:14.318Z,6.70
2019-03-24T00:45:42.364Z,6.90
2019-03-24T00:48:10.427Z,7.20
2019-03-24T00:50:38.542Z,7.10
2019-03-24T00:53:06.603Z,7.10
2019-03-24T00:55:34.650Z,6.90
2019-03-24T00:58:02.757Z,7.00
2019-03-24T01:00:40.700Z,6.90
2019-03-24T01:03:08.779Z,6.90
2019-03-24T01:05:36.799Z,6.80
2019-03-24T01:08:04.839Z,6.60
2019-03-24T01:10:33.672Z,6.50
2019-03-24T01:13:01.724Z,6.40
2019-03-24T01:15:29.770Z,6.50
2019-03-24T01:17:58.596Z,6.50
2019-03-24T01:20:26.643Z,6.50
2019-03-24T01:22:54.711Z,6.60
2019-03-24T01:25:22.776Z,6.70
2019-03-24T01:27:51.580Z,6.60
2019-03-24T01:30:19.655Z,6.60
2019-03-24T01:32:47.698Z,6.50
2019-03-24T01:35:16.624Z,6.70
2019-03-24T01:37:44.692Z,6.70
2019-03-24T01:40:13.579Z,6.60
2019-03-24T01:42:41.619Z,6.60
2019-03-24T01:45:10.434Z,6.50
2019-03-24T01:47:38.479Z,6.50
2019-03-24T01:50:07.303Z,6.20
2019-03-24T01:52:35.318Z,6.10
2019-03-24T01:55:03.371Z,6.30
2019-03-24T01:57:31.499Z,6.20
2019-03-24T01:59:59.547Z,6.10
2019-03-24T02:02:28.355Z,6.20
2019-03-24T02:04:56.532Z,6.10
2019-03-24T02:07:24.575Z,6.30
2019-03-24T02:09:53.394Z,6.30
2019-03-24T02:12:21.452Z,6.30
2019-03-24T02:14:49.475Z,6.10
2019-03-24T02:17:17.515Z,5.70
2019-03-24T02:19:45.583Z,5.70
2019-03-24T02:22:13.616Z,5.90
2019-03-24T02:24:42.541Z,6.00
2019-03-24T02:27:10.611Z,5.90
2019-03-24T02:29:39.412Z,6.00
2019-03-24T02:32:07.456Z,6.00
2019-03-24T02:34:35.628Z,6.00
2019-03-24T02:37:04.412Z,5.80
2019-03-24T02:39:32.494Z,5.80
2019-03-24T02:42:00.548Z,5.60
2019-03-24T02:44:29.363Z,5.70
2019-03-24T02:46:57.411Z,5.70
2019-03-24T02:49:25.461Z,5.60
2019-03-24T02:51:54.275Z,5.60
2019-03-24T02:54:22.328Z,5.60
2019-03-24T02:56:50.352Z,5.80
2019-03-24T02:59:18.400Z,5.80
2019-03-24T03:01:46.458Z,5.80
2019-03-24T03:04:14.500Z,5.70
2019-03-24T03:06:43.312Z,5.70
2019-03-24T03:09:11.361Z,5.70
2019-03-24T03:11:39.465Z,5.80
2019-03-24T03:14:07.512Z,5.50
2019-03-24T03:16:38.616Z,5.60
2019-03-24T03:19:04.352Z,5.60
2019-03-24T03:21:32.392Z,5.70
2019-03-24T03:24:00.434Z,5.70
2019-03-24T03:26:28.486Z,5.60
2019-03-24T03:28:56.537Z,5.10
2019-03-24T03:31:25.465Z,5.00
2019-03-24T03:33:54.253Z,5.10
2019-03-24T03:36:22.305Z,5.00
2019-03-24T03:38:50.360Z,5.10
2019-03-24T03:41:19.177Z,5.10
2019-03-24T03:43:47.231Z,5.00
2019-03-24T03:46:15.326Z,4.90
2019-03-24T03:48:44.095Z,5.00
2019-03-24T03:51:12.180Z,5.00
2019-03-24T03:53:40.356Z,5.00
2019-03-24T03:56:08.402Z,5.10
2019-03-24T03:58:36.446Z,5.10
2019-03-24T04:01:04.509Z,5.00
2019-03-24T04:03:32.565Z,5.00
2019-03-24T04:06:00.688Z,5.00
2019-03-24T04:08:28.766Z,5.00
2019-03-24T04:10:56.804Z,4.70
2019-03-24T04:13:25.624Z,4.70
2019-03-24T04:15:53.698Z,4.70
2019-03-24T04:18:21.756Z,4.50
2019-03-24T04:20:49.797Z,4.50
2019-03-24T04:23:17.995Z,4.50
2019-03-24T04:25:46.037Z,4.50
2019-03-24T04:28:14.096Z,4.70
2019-03-24T04:30:42.165Z,4.70
2019-03-24T04:33:10.188Z,4.60
2019-03-24T04:35:38.236Z,4.40
2019-03-24T04:38:07.069Z,4.30
2019-03-24T04:40:35.086Z,4.30
2019-03-24T04:43:03.908Z,4.70
2019-03-24T04:45:31.954Z,4.70
2019-03-24T04:47:59.993Z,4.70
2019-03-24T04:50:28.114Z,4.70
2019-03-24T04:52:56.181Z,4.40
2019-03-24T04:55:24.241Z,4.00
2019-03-24T04:57:52.780Z,3.90
2019-03-24T05:00:20.807Z,3.90
2019-03-24T05:02:49.601Z,4.10
2019-03-24T05:05:17.674Z,4.10
2019-03-24T05:07:45.732Z,4.10
2019-03-24T05:10:27.120Z,4.20
2019-03-24T05:12:55.190Z,4.20
2019-03-24T05:15:23.975Z,4.50
2019-03-24T05:17:52.023Z,4.50
2019-03-24T05:20:20.841Z,4.30
2019-03-24T05:22:48.886Z,4.30
2019-03-24T05:25:16.972Z,4.00
2019-03-24T05:27:45.078Z,3.90
2019-03-24T05:30:13.227Z,3.90
2019-03-24T05:32:41.247Z,3.90
2019-03-24T05:35:09.303Z,3.90
2019-03-24T05:37:37.435Z,3.90
2019-03-24T05:40:05.479Z,4.00
2019-03-24T05:42:34.295Z,4.00
2019-03-24T05:45:02.351Z,4.00
2019-03-24T05:47:37.170Z,4.30
2019-03-24T05:49:58.616Z,4.30
2019-03-24T05:52:27.668Z,4.50
2019-03-24T05:54:54.744Z,4.40
2019-03-24T05:57:22.787Z,4.30
2019-03-24T05:59:50.852Z,4.30
2019-03-24T06:02:19.677Z,4.60
2019-03-24T06:04:48.471Z,4.70
2019-03-24T06:07:16.538Z,4.70
2019-03-24T06:09:44.595Z,4.60
2019-03-24T06:12:12.647Z,4.60
2019-03-24T06:14:41.462Z,4.80
2019-03-24T06:17:09.507Z,4.80
2019-03-24T06:19:38.414Z,4.70
2019-03-24T06:22:06.455Z,4.70
2019-03-24T06:24:35.290Z,4.70
2019-03-24T06:27:03.322Z,4.70
2019-03-24T06:29:32.142Z,5.40
2019-03-24T06:32:00.210Z,5.40
2019-03-24T06:34:28.273Z,5.90
2019-03-24T06:36:56.317Z,7.10
2019-03-24T06:39:25.161Z,8.70
2019-03-24T06:41:53.213Z,8.70
2019-03-24T06:44:21.275Z,9.20
2019-03-24T06:46:49.352Z,9.50
2019-03-24T06:49:17.406Z,9.60
2019-03-24T06:51:45.452Z,10.00
2019-03-24T06:54:14.371Z,10.30
2019-03-24T06:56:42.423Z,10.30
2019-03-24T06:59:10.527Z,10.00
2019-03-24T07:01:38.583Z,9.90
2019-03-24T07:04:06.664Z,9.60
2019-03-24T07:06:35.455Z,10.00
2019-03-24T07:09:03.508Z,9.90
2019-03-24T07:11:31.587Z,10.10
2019-03-24T07:13:59.651Z,10.20
2019-03-24T07:16:27.719Z,10.40
2019-03-24T07:18:55.798Z,10.80
2019-03-24T07:21:23.865Z,10.80
2019-03-24T07:23:51.910Z,11.10
2019-03-24T07:26:20.829Z,11.00
2019-03-24T07:28:48.882Z,10.90
2019-03-24T07:31:16.962Z,11.30
2019-03-24T07:33:45.850Z,11.20
2019-03-24T07:36:13.919Z,11.10
2019-03-24T07:38:41.994Z,11.60
2019-03-24T07:41:10.051Z,12.20
2019-03-24T07:43:38.150Z,12.20
2019-03-24T07:46:06.310Z,11.80
2019-03-24T07:48:34.363Z,11.90
2019-03-24T07:51:02.425Z,12.00
2019-03-24T07:53:31.251Z,11.90
2019-03-24T07:55:59.408Z,11.90
2019-03-24T07:58:27.493Z,12.00
2019-03-24T08:00:55.540Z,11.30
2019-03-24T08:03:23.600Z,11.90
2019-03-24T08:05:52.427Z,12.30
2019-03-24T08:08:20.487Z,12.30
2019-03-24T08:10:48.650Z,12.90
2019-03-24T08:13:16.700Z,13.50
2019-03-24T08:15:45.531Z,13.50
2019-03-24T08:18:13.574Z,13.60
2019-03-24T08:20:41.647Z,13.90
2019-03-24T08:23:09.711Z,13.90
2019-03-24T08:25:37.763Z,13.60
2019-03-24T08:28:06.604Z,14.50
2019-03-24T08:30:34.699Z,14.50
2019-03-24T08:33:02.849Z,14.80
2019-03-24T08:35:30.986Z,14.90
2019-03-24T08:37:59.066Z,14.90
2019-03-24T08:40:27.135Z,15.00
2019-03-24T08:42:55.206Z,14.70
2019-03-24T08:45:25.112Z,14.70
2019-03-24T08:47:54.024Z,14.80
2019-03-24T08:50:22.089Z,14.80
2019-03-24T08:52:50.263Z,14.80
2019-03-24T08:55:18.328Z,14.90
2019-03-24T08:57:46.403Z,15.60
2019-03-24T09:00:14.456Z,15.70
2019-03-24T09:02:42.555Z,15.70
2019-03-24T09:05:10.612Z,16.00
2019-03-24T09:07:38.681Z,16.10
2019-03-24T09:10:06.758Z,15.90
2019-03-24T09:12:34.812Z,16.40
2019-03-24T09:15:02.919Z,15.30
2019-03-24T09:17:31.207Z,15.10
2019-03-24T09:19:59.245Z,15.90
2019-03-24T09:22:27.329Z,16.20
2019-03-24T09:24:55.442Z,15.90
2019-03-24T09:27:24.327Z,15.80
2019-03-24T09:29:52.467Z,15.70
2019-03-24T09:32:20.534Z,16.20
2019-03-24T09:34:48.615Z,16.70
2019-03-24T09:37:16.749Z,16.90
2019-03-24T09:39:44.798Z,17.00
2019-03-24T09:42:13.714Z,16.70
2019-03-24T09:44:41.788Z,16.60
2019-03-24T09:47:09.831Z,17.30
2019-03-24T09:49:38.655Z,17.90
2019-03-24T09:52:06.714Z,17.90
2019-03-24T09:54:34.785Z,18.20
2019-03-24T09:57:02.850Z,17.80
2019-03-24T09:59:31.848Z,17.10
2019-03-24T10:01:59.927Z,17.10
2019-03-24T10:04:27.978Z,17.10
2019-03-24T10:06:56.062Z,17.30
2019-03-24T10:09:24.130Z,17.30
2019-03-24T10:11:52.175Z,17.30
2019-03-24T10:14:20.987Z,17.80
2019-03-24T10:16:49.038Z,17.80
2019-03-24T10:19:17.939Z,17.50
2019-03-24T10:24:30.443Z,18.00
2019-03-24T10:26:59.264Z,18.60
2019-03-24T10:29:27.380Z,18.50
2019-03-24T10:31:55.507Z,18.50
2019-03-24T10:34:23.557Z,18.80
2019-03-24T10:36:52.359Z,17.90
2019-03-24T10:39:21.280Z,18.10
2019-03-24T10:41:49.334Z,18.10
2019-03-24T10:44:17.392Z,18.60
2019-03-24T10:46:45.466Z,19.10
2019-03-24T10:49:24.161Z,19.00
2019-03-24T10:51:41.699Z,18.60
2019-03-24T10:54:09.776Z,18.90
2019-03-24T10:56:37.846Z,19.30
2019-03-24T10:59:05.922Z,19.70
2019-03-24T11:01:33.985Z,19.70
2019-03-24T11:04:02.781Z,20.40
2019-03-24T11:06:30.806Z,20.40
2019-03-24T11:08:59.651Z,20.70
2019-03-24T11:11:27.800Z,20.70
2019-03-24T11:13:56.683Z,20.70
2019-03-24T11:16:24.746Z,20.60
2019-03-24T11:18:52.812Z,20.80
2019-03-24T11:21:20.909Z,20.50
2019-03-24T11:23:48.970Z,20.10
2019-03-24T11:26:17.011Z,20.10
2019-03-24T11:28:45.834Z,19.80
2019-03-24T11:31:14.715Z,19.90
2019-03-24T11:33:42.788Z,19.80
2019-03-24T11:36:10.831Z,20.30
2019-03-24T11:38:39.760Z,20.50
2019-03-24T11:41:08.639Z,20.80
2019-03-24T11:43:36.698Z,20.80
2019-03-24T11:46:04.753Z,20.60
2019-03-24T11:48:33.582Z,20.70
2019-03-24T11:51:01.604Z,20.70
2019-03-24T11:53:30.422Z,20.60
2019-03-24T11:55:58.703Z,20.50
2019-03-24T11:58:26.767Z,20.80
2019-03-24T12:00:54.840Z,20.90
2019-03-24T12:03:25.231Z,21.00
2019-03-24T12:05:51.701Z,20.50
2019-03-24T12:08:19.773Z,20.50
2019-03-24T12:10:47.853Z,20.30
2019-03-24T12:13:16.022Z,20.70
2019-03-24T12:15:44.804Z,21.20
2019-03-24T12:18:12.839Z,21.20
2019-03-24T12:20:41.770Z,20.20
2019-03-24T12:23:09.821Z,20.20
2019-03-24T12:25:37.870Z,20.40
2019-03-24T12:28:06.799Z,21.40
2019-03-24T12:30:34.848Z,21.30
2019-03-24T12:33:02.899Z,21.60
2019-03-24T12:35:30.999Z,21.40
2019-03-24T12:37:59.064Z,21.20
2019-03-24T12:40:27.123Z,21.20
2019-03-24T12:42:55.212Z,21.20
2019-03-24T12:45:23.291Z,21.30
2019-03-24T12:47:51.346Z,21.50
2019-03-24T12:50:30.673Z,21.60
2019-03-24T12:52:47.419Z,22.00
2019-03-24T12:55:15.479Z,21.50
2019-03-24T12:57:44.253Z,21.30
2019-03-24T13:00:11.709Z,21.40
2019-03-24T13:02:39.750Z,21.70
2019-03-24T13:05:08.472Z,21.90
2019-03-24T13:07:36.651Z,21.60
2019-03-24T13:10:05.523Z,21.90
2019-03-24T13:12:33.596Z,21.50
2019-03-24T13:15:01.659Z,21.40
2019-03-24T13:17:29.719Z,21.40
2019-03-24T13:19:57.796Z,21.00
2019-03-24T13:22:25.848Z,20.70
2019-03-24T13:24:54.766Z,20.30
2019-03-24T13:27:23.607Z,20.10
2019-03-24T13:29:51.623Z,20.10
2019-03-24T13:32:19.687Z,20.00
2019-03-24T13:34:47.732Z,19.70
2019-03-24T13:37:15.759Z,20.00
2019-03-24T13:39:43.814Z,20.10
2019-03-24T13:42:11.874Z,20.50
2019-03-24T13:44:40.759Z,20.90
2019-03-24T13:47:08.823Z,20.90
2019-03-24T13:49:36.908Z,20.90
2019-03-24T13:52:04.970Z,20.60
2019-03-24T13:54:33.019Z,20.20
2019-03-24T13:57:01.946Z,20.60
2019-03-24T13:59:29.999Z,20.60
2019-03-24T14:01:58.807Z,20.30
2019-03-24T14:04:26.827Z,20.30
2019-03-24T14:06:54.942Z,20.40
2019-03-24T14:09:22.987Z,20.60
2019-03-24T14:11:51.071Z,20.70
2019-03-24T14:14:19.137Z,20.80
2019-03-24T14:16:47.219Z,21.00
2019-03-24T14:19:15.283Z,20.80
2019-03-24T14:21:43.367Z,20.80
2019-03-24T14:24:11.425Z,20.90
2019-03-24T14:26:39.478Z,20.90
2019-03-24T14:29:08.389Z,20.70
2019-03-24T14:31:36.568Z,20.70
2019-03-24T14:34:04.616Z,20.50
2019-03-24T14:36:32.638Z,20.30
2019-03-24T14:39:00.694Z,19.90
2019-03-24T14:41:28.843Z,19.70
2019-03-24T14:43:57.730Z,19.80
2019-03-24T14:46:25.815Z,19.70
2019-03-24T14:48:53.868Z,19.80
2019-03-24T14:51:21.926Z,20.00
2019-03-24T14:53:50.751Z,19.80
2019-03-24T14:56:18.920Z,19.80
2019-03-24T14:58:46.984Z,20.10
2019-03-24T15:01:15.863Z,19.50
2019-03-24T15:03:43.972Z,19.50
2019-03-24T15:06:12.105Z,19.60
2019-03-24T15:08:40.183Z,19.30
2019-03-24T15:11:08.300Z,19.50
2019-03-24T15:13:36.527Z,19.40
2019-03-24T15:16:04.602Z,19.40
2019-03-24T15:18:32.671Z,19.30
2019-03-24T15:21:05.505Z,18.90
2019-03-24T15:23:28.814Z,18.90
2019-03-24T15:25:56.855Z,18.90
2019-03-24T15:28:25.675Z,19.00
2019-03-24T15:30:53.723Z,19.00
2019-03-24T15:33:21.820Z,19.10
2019-03-24T15:35:49.874Z,18.90
2019-03-24T15:38:18.778Z,18.60
2019-03-24T15:40:49.432Z,18.60
2019-03-24T15:43:14.916Z,18.40
2019-03-24T15:45:43.712Z,17.90
2019-03-24T15:48:11.777Z,17.90
2019-03-24T15:50:39.849Z,17.80
2019-03-24T15:53:07.902Z,17.90
2019-03-24T15:55:36.183Z,17.90
2019-03-24T15:58:04.244Z,17.80
2019-03-24T16:00:47.175Z,17.70
2019-03-24T16:03:15.240Z,17.50
2019-03-24T16:05:43.276Z,17.40
2019-03-24T16:08:12.102Z,16.90
2019-03-24T16:10:40.282Z,16.90
2019-03-24T16:13:08.333Z,16.90
2019-03-24T16:15:36.524Z,16.90
2019-03-24T16:18:04.613Z,16.80
2019-03-24T16:20:32.654Z,16.70
2019-03-24T16:23:00.704Z,16.40
2019-03-24T16:25:28.725Z,16.40
2019-03-24T16:27:56.782Z,16.60
2019-03-24T16:30:25.175Z,16.50
2019-03-24T16:32:53.332Z,16.50
2019-03-24T16:35:21.413Z,16.30
2019-03-24T16:37:49.470Z,16.10
2019-03-24T16:40:18.454Z,15.70
2019-03-24T16:42:46.628Z,15.70
2019-03-24T16:45:15.528Z,15.40
2019-03-24T16:47:43.583Z,15.40
2019-03-24T16:50:11.643Z,15.40
2019-03-24T16:52:39.704Z,15.30
2019-03-24T16:55:08.540Z,15.00
2019-03-24T16:57:36.904Z,15.00
2019-03-24T17:00:04.966Z,14.90
2019-03-24T17:02:33.759Z,14.70
2019-03-24T17:05:01.831Z,14.70
2019-03-24T17:07:29.895Z,14.50
2019-03-24T17:09:57.963Z,14.50
2019-03-24T17:12:26.025Z,14.50
2019-03-24T17:14:54.107Z,14.30
2019-03-24T17:17:22.174Z,14.30
2019-03-24T17:19:50.254Z,14.40
2019-03-24T17:22:18.290Z,14.20
2019-03-24T17:24:47.202Z,13.90
2019-03-24T17:27:15.247Z,13.90
2019-03-24T17:29:44.172Z,13.70
2019-03-24T17:32:12.245Z,13.70
2019-03-24T17:34:40.423Z,13.70
2019-03-24T17:37:08.473Z,13.70
2019-03-24T17:39:36.530Z,13.50
2019-03-24T17:42:04.580Z,13.40
2019-03-24T17:44:32.691Z,13.30
2019-03-24T17:47:00.731Z,13.30
2019-03-24T17:49:28.858Z,13.30
2019-03-24T17:52:01.015Z,13.10
2019-03-24T17:54:24.972Z,12.90
2019-03-24T17:56:53.052Z,12.80
2019-03-24T17:59:21.122Z,12.80
2019-03-24T18:01:49.175Z,12.70
2019-03-24T18:04:17.268Z,12.70
2019-03-24T18:06:45.324Z,12.80
2019-03-24T18:09:13.391Z,12.80
2019-03-24T18:11:41.515Z,12.80
2019-03-24T18:14:09.573Z,12.70
2019-03-24T18:16:37.587Z,12.70
2019-03-24T18:19:05.635Z,12.60
2019-03-24T18:21:33.792Z,12.60
2019-03-24T18:24:01.809Z,12.50
2019-03-24T18:26:29.894Z,12.40
2019-03-24T18:28:57.939Z,12.30
2019-03-24T18:31:26.133Z,12.30
2019-03-24T18:33:55.011Z,12.40
2019-03-24T18:36:23.074Z,12.30
2019-03-24T18:38:51.140Z,12.30
2019-03-24T18:41:19.237Z,12.10
2019-03-24T18:43:47.264Z,12.20
2019-03-24T18:46:15.316Z,12.10
2019-03-24T18:48:43.342Z,12.20
2019-03-24T18:51:11.434Z,12.20
2019-03-24T18:53:39.488Z,11.90
2019-03-24T18:56:07.555Z,11.90
2019-03-24T18:58:35.670Z,11.80
2019-03-24T19:01:03.790Z,11.70
2019-03-24T19:03:31.876Z,11.50
2019-03-24T19:05:59.914Z,11.40
2019-03-24T19:08:28.738Z,11.60
2019-03-24T19:10:56.899Z,11.60
2019-03-24T19:13:24.968Z,11.50
2019-03-24T19:15:53.226Z,11.50
2019-03-24T19:18:22.039Z,11.20
2019-03-24T19:20:50.202Z,11.20
2019-03-24T19:23:18.282Z,11.20
2019-03-24T19:25:46.343Z,11.30
2019-03-24T19:28:15.228Z,11.50
2019-03-24T19:30:43.278Z,11.40
2019-03-24T19:33:11.392Z,11.60
2019-03-24T19:35:39.555Z,11.40
2019-03-24T19:38:07.659Z,11.30
2019-03-24T19:40:35.684Z,11.40
2019-03-24T19:43:03.759Z,11.40
2019-03-24T19:45:32.693Z,11.00
2019-03-24T19:48:00.777Z,11.00
2019-03-24T19:50:28.799Z,10.80
2019-03-24T19:52:56.865Z,10.70
2019-03-24T19:55:24.910Z,10.80
2019-03-24T19:57:53.731Z,10.60
2019-03-24T20:00:21.787Z,10.60
2019-03-24T20:05:47.793Z,10.50
2019-03-24T20:08:16.823Z,10.70
2019-03-24T20:10:44.870Z,10.80
2019-03-24T20:13:12.928Z,10.90
2019-03-24T20:15:41.762Z,11.10
2019-03-24T20:18:09.814Z,11.10
2019-03-24T20:20:37.870Z,11.00
2019-03-24T20:23:06.713Z,10.80
2019-03-24T20:25:34.834Z,10.80
2019-03-24T20:28:02.892Z,11.00
2019-03-24T20:30:31.814Z,11.00
2019-03-24T20:32:59.865Z,11.00
2019-03-24T20:35:27.954Z,11.00
2019-03-24T20:37:56.011Z,10.90
2019-03-24T20:40:24.082Z,10.50
2019-03-24T20:42:52.164Z,10.50
2019-03-24T20:45:20.244Z,10.70
2019-03-24T20:47:48.310Z,10.70
2019-03-24T20:50:16.372Z,10.60
2019-03-24T20:52:44.430Z,10.60
2019-03-24T20:55:13.227Z,10.50
2019-03-24T20:57:41.317Z,10.50
2019-03-24T21:00:10.114Z,10.40
2019-03-24T21:02:38.182Z,10.40
2019-03-24T21:05:06.262Z,10.60
2019-03-24T21:07:34.279Z,10.60
2019-03-24T21:10:02.371Z,10.60
2019-03-24T21:12:30.545Z,10.60
2019-03-24T21:14:58.611Z,10.70
2019-03-24T21:17:26.677Z,10.70
2019-03-24T21:19:54.754Z,10.60
2019-03-24T21:22:22.802Z,10.60
2019-03-24T21:24:51.715Z,10.40
2019-03-24T21:27:19.766Z,10.40
2019-03-24T21:29:47.833Z,10.40
2019-03-24T21:32:16.640Z,10.40
2019-03-24T21:34:44.706Z,10.40
2019-03-24T21:37:12.750Z,10.40
2019-03-24T21:39:41.574Z,10.10
2019-03-24T21:42:09.643Z,10.10
2019-03-24T21:44:37.794Z,9.80
2019-03-24T21:47:06.624Z,10.10
2019-03-24T21:49:34.724Z,10.10
2019-03-24T21:52:02.775Z,10.20
2019-03-24T21:54:30.929Z,9.90
2019-03-24T21:56:58.983Z,9.70
2019-03-24T21:59:27.043Z,9.80
2019-03-24T22:01:55.087Z,9.90
2019-03-24T22:04:23.143Z,9.80
2019-03-24T22:06:51.163Z,9.80
2019-03-24T22:09:19.214Z,9.70
2019-03-24T22:11:48.122Z,9.50
2019-03-24T22:14:16.184Z,9.50
2019-03-24T22:16:44.997Z,9.50
2019-03-24T22:19:13.158Z,9.40
2019-03-24T22:21:41.213Z,9.40
2019-03-24T22:24:09.262Z,9.30
2019-03-24T22:26:38.078Z,9.10
2019-03-24T22:29:06.140Z,9.10
2019-03-24T22:31:34.188Z,9.10
2019-03-24T22:34:02.288Z,9.10
2019-03-24T22:36:30.394Z,9.10
2019-03-24T22:38:58.534Z,9.30
2019-03-24T22:41:27.323Z,9.30
2019-03-24T22:43:55.397Z,9.30
2019-03-24T22:46:23.491Z,9.10
2019-03-24T22:48:52.266Z,9.20
2019-03-24T22:51:20.312Z,9.10
2019-03-24T22:53:48.397Z,9.10
2019-03-24T22:56:16.452Z,9.10
2019-03-24T22:58:44.490Z,9.10
2019-03-24T23:01:12.546Z,9.20
2019-03-24T23:03:40.562Z,9.20
2019-03-24T23:06:08.606Z,9.30
2019-03-24T23:08:37.434Z,9.40
2019-03-24T23:11:05.488Z,9.40
2019-03-24T23:13:33.563Z,9.40
2019-03-24T23:16:01.610Z,9.40
2019-03-24T23:18:29.720Z,9.20
2019-03-24T23:20:58.522Z,9.40
2019-03-24T23:23:26.667Z,9.40
2019-03-24T23:25:54.738Z,9.30
2019-03-24T23:28:22.870Z,9.30
2019-03-24T23:30:50.986Z,9.20
2019-03-24T23:33:19.075Z,9.20
2019-03-24T23:35:47.118Z,8.90
2019-03-24T23:38:15.173Z,9.00
2019-03-24T23:40:43.195Z,9.20
2019-03-24T23:43:11.230Z,9.40
2019-03-24T23:45:39.328Z,9.50
2019-03-24T23:48:07.391Z,9.60
2019-03-24T23:50:35.447Z,9.50
2019-03-24T23:53:04.235Z,9.30
2019-03-24T23:55:32.307Z,9.30
2019-03-24T23:58:01.087Z,8.90
